Time;durP1;ratioP1;P1;durP2;ratioP2;P2;SDS_P1;SDS_P2;PMS_P1;PMS_P2;Temp;Humidity;BMP_temperature;BMP_pressure;BME280_temperature;BME280_humidity;BME280_pressure;Samples;Min_cycle;Max_cycle;Signal;HPM_P1;HPM_P2
2023/06/08 00:00:09;;;;;;;5.75;3.97;;;;;;;;;;5035020;28;20112;-63
2023/06/08 00:02:36;;;;;;;5.30;3.65;;;;;;;;;;5034961;28;20080;-64
2023/06/08 00:05:02;;;;;;;6.78;4.03;;;;;;;;;;5035224;28;20021;-63
2023/06/08 00:07:29;;;;;;;4.93;3.33;;;;;;;;;;5034857;28;20030;-64
2023/06/08 00:10:40;;;;;;;7.55;3.97;;;;;;;;;;5034585;28;20069;-64
2023/06/08 00:13:06;;;;;;;7.05;4.05;;;;;;;;;;5029489;28;20045;-64
2023/06/08 00:15:32;;;;;;;7.22;4.32;;;;;;;;;;5034973;28;20033;-64
2023/06/08 00:17:59;;;;;;;9.02;3.97;;;;;;;;;;5034702;28;20057;-63
2023/06/08 00:20:24;;;;;;;5.40;3.88;;;;;;;;;;5034659;28;20049;-63
2023/06/08 00:22:50;;;;;;;8.25;3.90;;;;;;;;;;5034549;28;20038;-64
2023/06/08 00:25:15;;;;;;;5.35;3.95;;;;;;;;;;5034516;28;20031;-63
2023/06/08 00:27:41;;;;;;;6.32;3.60;;;;;;;;;;5033234;28;20021;-63
2023/06/08 00:30:07;;;;;;;8.18;3.80;;;;;;;;;;5034680;28;20025;-63
2023/06/08 00:32:32;;;;;;;4.80;3.65;;;;;;;;;;5034443;28;20030;-63
2023/06/08 00:34:58;;;;;;;7.30;4.07;;;;;;;;;;5034385;28;20030;-64
2023/06/08 00:37:23;;;;;;;6.68;3.90;;;;;;;;;;5034456;28;20025;-63
2023/06/08 00:39:49;;;;;;;7.40;4.00;;;;;;;;;;5034167;28;20052;-63
2023/06/08 00:42:15;;;;;;;4.97;3.60;;;;;;;;;;5034170;28;20087;-63
2023/06/08 00:44:40;;;;;;;6.88;3.85;;;;;;;;;;5034556;28;20115;-63
2023/06/08 00:47:06;;;;;;;7.22;3.92;;;;;;;;;;5034154;28;20487;-63
2023/06/08 00:49:32;;;;;;;7.32;4.22;;;;;;;;;;5034088;28;20033;-64
2023/06/08 00:52:00;;;;;;;7.35;3.67;;;;;;;;;;5034087;28;20040;-62
2023/06/08 00:54:30;;;;;;;5.55;3.65;;;;;;;;;;5034127;28;20021;-64
2023/06/08 00:57:00;;;;;;;6.22;3.70;;;;;;;;;;5034607;28;20033;-65
2023/06/08 00:59:29;;;;;;;5.15;3.75;;;;;;;;;;5034297;28;20174;-63
2023/06/08 01:01:57;;;;;;;5.35;4.00;;;;;;;;;;5033832;28;20029;-64
2023/06/08 01:04:23;;;;;;;4.45;3.47;;;;;;;;;;5033928;28;20040;-62
2023/06/08 01:06:53;;;;;;;6.05;3.90;;;;;;;;;;5033796;28;20029;-63
2023/06/08 01:09:36;;;;;;;5.07;3.75;;;;;;;;;;5033569;28;20061;-63
2023/06/08 01:12:33;;;;;;;6.32;3.90;;;;;;;;;;5033964;28;20037;-64
2023/06/08 01:15:21;;;;;;;6.53;3.70;;;;;;;;;;5033994;28;20025;-63
2023/06/08 01:17:52;;;;;;;5.18;3.67;;;;;;;;;;5033749;28;20041;-63
2023/06/08 01:20:41;;;;;;;4.88;3.78;;;;;;;;;;5033929;28;20110;-62
2023/06/08 01:23:34;;;;;;;5.53;3.73;;;;;;;;;;5033602;28;20033;-63
2023/06/08 01:26:00;;;;;;;6.15;3.70;;;;;;;;;;5033458;28;20029;-63
2023/06/08 01:28:28;;;;;;;6.00;4.07;;;;;;;;;;5033426;28;20052;-65
2023/06/08 01:30:54;;;;;;;5.75;3.45;;;;;;;;;;5033695;28;20163;-65
2023/06/08 01:33:22;;;;;;;6.93;3.58;;;;;;;;;;5033320;28;20530;-63
2023/06/08 01:36:05;;;;;;;8.50;3.40;;;;;;;;;;5033523;28;20029;-64
2023/06/08 01:38:39;;;;;;;6.97;4.20;;;;;;;;;;5033506;28;20094;-64
2023/06/08 01:41:10;;;;;;;6.68;3.80;;;;;;;;;;5033170;28;20033;-64
2023/06/08 01:43:40;;;;;;;8.85;3.90;;;;;;;;;;5033141;28;20492;-64
2023/06/08 01:46:10;;;;;;;6.25;3.70;;;;;;;;;;5033050;28;20465;-63
2023/06/08 01:48:40;;;;;;;6.82;3.45;;;;;;;;;;5033612;28;20056;-64
2023/06/08 01:51:06;;;;;;;;;;;;;;;;;;5032864;28;20026;-64
2023/06/08 01:53:32;;;;;;;7.30;3.58;;;;;;;;;;5033154;28;19913;-64
2023/06/08 01:55:57;;;;;;;5.38;3.67;;;;;;;;;;5033162;28;20477;-63
2023/06/08 01:58:23;;;;;;;7.30;4.03;;;;;;;;;;5033105;28;20430;-64
2023/06/08 02:00:48;;;;;;;4.50;3.60;;;;;;;;;;5032827;28;20425;-63
2023/06/08 02:03:14;;;;;;;5.10;3.85;;;;;;;;;;5033059;28;20129;-63
2023/06/08 02:05:40;;;;;;;6.82;3.88;;;;;;;;;;5032978;28;20531;-64
2023/06/08 02:08:17;;;;;;;5.82;3.55;;;;;;;;;;5032877;28;20021;-63
2023/06/08 02:10:52;;;;;;;6.45;3.50;;;;;;;;;;5032533;28;20041;-64
2023/06/08 02:13:17;;;;;;;9.48;4.30;;;;;;;;;;5032550;28;20465;-63
2023/06/08 02:15:43;;;;;;;7.82;4.07;;;;;;;;;;5032594;28;20104;-64
2023/06/08 02:18:08;;;;;;;4.32;3.38;;;;;;;;;;5032901;28;20095;-64
2023/06/08 02:20:34;;;;;;;4.90;3.50;;;;;;;;;;5032620;28;20505;-65
2023/06/08 02:22:59;;;;;;;7.30;4.00;;;;;;;;;;5032514;28;20040;-63
2023/06/08 02:25:25;;;;;;;6.38;3.90;;;;;;;;;;5032785;28;20036;-65
2023/06/08 02:27:51;;;;;;;4.40;3.63;;;;;;;;;;5032631;28;20022;-65
2023/06/08 02:30:17;;;;;;;4.75;3.60;;;;;;;;;;5032477;28;20033;-64
2023/06/08 02:32:45;;;;;;;5.35;3.50;;;;;;;;;;5032412;28;20060;-63
2023/06/08 02:35:11;;;;;;;4.10;3.42;;;;;;;;;;5032405;28;20076;-64
2023/06/08 02:37:36;;;;;;;4.85;3.80;;;;;;;;;;5032629;28;20037;-65
2023/06/08 02:40:04;;;;;;;6.28;3.90;;;;;;;;;;5032316;28;20477;-64
2023/06/08 02:42:30;;;;;;;6.07;3.55;;;;;;;;;;5032548;28;20026;-63
2023/06/08 02:44:55;;;;;;;4.40;3.30;;;;;;;;;;5032357;28;20022;-63
2023/06/08 02:47:21;;;;;;;5.43;3.65;;;;;;;;;;5032551;28;20440;-63
2023/06/08 02:49:46;;;;;;;6.10;3.75;;;;;;;;;;5032496;28;20121;-65
2023/06/08 02:52:12;;;;;;;7.57;3.80;;;;;;;;;;5032228;28;20367;-63
2023/06/08 02:54:38;;;;;;;4.68;3.65;;;;;;;;;;5032208;28;20060;-63
2023/06/08 02:57:03;;;;;;;4.38;3.30;;;;;;;;;;5032414;28;20041;-62
2023/06/08 02:59:31;;;;;;;3.58;3.05;;;;;;;;;;5032451;28;20026;-62
2023/06/08 03:01:57;;;;;;;4.95;3.42;;;;;;;;;;5032145;28;20033;-64
2023/06/08 03:04:24;;;;;;;5.72;3.58;;;;;;;;;;5036073;28;20022;-62
2023/06/08 03:06:53;;;;;;;4.07;3.63;;;;;;;;;;5036404;28;20375;-62
2023/06/08 03:09:23;;;;;;;8.03;3.60;;;;;;;;;;5035811;28;20049;-63
2023/06/08 03:11:49;;;;;;;7.05;3.60;;;;;;;;;;5036162;28;20491;-63
2023/06/08 03:14:16;;;;;;;4.82;3.50;;;;;;;;;;5035929;28;20021;-64
2023/06/08 03:16:44;;;;;;;6.10;3.55;;;;;;;;;;5035856;28;20120;-63
2023/06/08 03:19:10;;;;;;;6.15;4.10;;;;;;;;;;5035825;28;20032;-63
2023/06/08 03:21:36;;;;;;;6.70;3.72;;;;;;;;;;5036026;28;20025;-63
2023/06/08 03:24:03;;;;;;;4.18;3.78;;;;;;;;;;5036037;28;20053;-63
2023/06/08 03:26:28;;;;;;;5.28;3.70;;;;;;;;;;5035624;28;20029;-63
2023/06/08 03:28:54;;;;;;;6.15;3.42;;;;;;;;;;5035679;28;20033;-63
2023/06/08 03:31:20;;;;;;;4.85;3.58;;;;;;;;;;5035801;28;20037;-63
2023/06/08 03:33:46;;;;;;;3.55;3.25;;;;;;;;;;5035866;28;20373;-63
2023/06/08 03:36:12;;;;;;;3.97;3.40;;;;;;;;;;5035514;28;20029;-64
2023/06/08 03:38:37;;;;;;;5.00;3.60;;;;;;;;;;5035773;28;20214;-63
2023/06/08 03:41:03;;;;;;;3.90;3.50;;;;;;;;;;5035723;28;20025;-65
2023/06/08 03:43:28;;;;;;;5.80;3.25;;;;;;;;;;5035474;28;20029;-64
2023/06/08 03:45:54;;;;;;;6.05;3.40;;;;;;;;;;5035382;28;20603;-64
2023/06/08 03:48:20;;;;;;;4.68;3.20;;;;;;;;;;5035555;28;20041;-66
2023/06/08 03:50:45;;;;;;;4.70;3.40;;;;;;;;;;5035540;28;20029;-63
2023/06/08 03:53:11;;;;;;;4.78;3.70;;;;;;;;;;5035593;28;20025;-65
2023/06/08 03:55:37;;;;;;;5.65;3.70;;;;;;;;;;5035174;28;20469;-65
2023/06/08 03:58:03;;;;;;;4.10;3.70;;;;;;;;;;5035167;28;20604;-65
2023/06/08 04:00:29;;;;;;;5.15;3.95;;;;;;;;;;5035372;28;20064;-65
2023/06/08 04:02:58;;;;;;;3.90;3.40;;;;;;;;;;5035058;28;20598;-65
2023/06/08 04:05:24;;;;;;;3.88;3.13;;;;;;;;;;5035236;28;20029;-64
2023/06/08 04:07:53;;;;;;;6.55;3.45;;;;;;;;;;5035001;28;20501;-65
2023/06/08 04:10:18;;;;;;;4.95;3.50;;;;;;;;;;5034758;28;20424;-65
2023/06/08 04:12:44;;;;;;;4.90;3.53;;;;;;;;;;5035013;28;20025;-66
2023/06/08 04:15:10;;;;;;;4.70;3.45;;;;;;;;;;5034515;28;20021;-63
2023/06/08 04:17:41;;;;;;;7.38;3.50;;;;;;;;;;5034842;28;20117;-64
2023/06/08 04:20:07;;;;;;;4.93;3.45;;;;;;;;;;5034746;28;20026;-65
2023/06/08 04:22:33;;;;;;;6.13;3.22;;;;;;;;;;5034703;28;20033;-65
2023/06/08 04:24:58;;;;;;;3.53;3.22;;;;;;;;;;5034901;28;20056;-65
2023/06/08 04:27:24;;;;;;;5.43;3.60;;;;;;;;;;5034572;28;20021;-66
2023/06/08 04:29:52;;;;;;;4.25;3.35;;;;;;;;;;5034428;28;20030;-64
2023/06/08 04:32:17;;;;;;;5.95;3.38;;;;;;;;;;5034782;28;20504;-64
2023/06/08 04:34:43;;;;;;;4.57;3.40;;;;;;;;;;5034749;28;20030;-66
2023/06/08 04:37:08;;;;;;;4.43;3.60;;;;;;;;;;5034668;28;20389;-65
2023/06/08 04:39:34;;;;;;;4.43;3.22;;;;;;;;;;5034553;28;20041;-66
2023/06/08 04:42:02;;;;;;;3.55;2.97;;;;;;;;;;5034310;28;20026;-66
2023/06/08 04:44:31;;;;;;;3.80;3.13;;;;;;;;;;5034442;28;20092;-64
2023/06/08 04:46:57;;;;;;;5.10;3.40;;;;;;;;;;5034410;28;20076;-65
2023/06/08 04:49:30;;;;;;;3.70;3.30;;;;;;;;;;5034290;28;20030;-66
2023/06/08 04:51:59;;;;;;;4.15;3.60;;;;;;;;;;5032962;28;20028;-64
2023/06/08 04:54:27;;;;;;;5.63;3.50;;;;;;;;;;5034305;28;20105;-65
2023/06/08 04:56:59;;;;;;;4.50;3.25;;;;;;;;;;5034327;28;20017;-67
2023/06/08 04:59:28;;;;;;;4.25;3.60;;;;;;;;;;5033999;28;20022;-65
2023/06/08 05:01:54;;;;;;;6.78;2.97;;;;;;;;;;5033959;28;20453;-66
2023/06/08 05:04:20;;;;;;;3.55;3.20;;;;;;;;;;5034028;28;20037;-66
2023/06/08 05:06:46;;;;;;;4.40;3.33;;;;;;;;;;5034152;28;20033;-67
2023/06/08 05:09:12;;;;;;;4.15;3.05;;;;;;;;;;5033493;28;20057;-66
2023/06/08 05:11:38;;;;;;;4.25;3.60;;;;;;;;;;5033836;28;20036;-66
2023/06/08 05:14:04;;;;;;;4.32;3.47;;;;;;;;;;5033576;28;20034;-65
2023/06/08 05:16:29;;;;;;;5.80;3.35;;;;;;;;;;5033684;28;20026;-66
2023/06/08 05:18:55;;;;;;;4.38;2.92;;;;;;;;;;5033897;28;20079;-66
2023/06/08 05:21:20;;;;;;;3.90;3.05;;;;;;;;;;5033469;28;20491;-66
2023/06/08 05:23:47;;;;;;;6.68;3.45;;;;;;;;;;5033485;28;20029;-65
2023/06/08 05:26:13;;;;;;;3.40;3.08;;;;;;;;;;5032602;28;20060;-65
2023/06/08 05:28:38;;;;;;;4.00;3.25;;;;;;;;;;5033281;28;20033;-63
2023/06/08 05:31:04;;;;;;;3.83;3.05;;;;;;;;;;5033276;28;20029;-63
2023/06/08 05:33:29;;;;;;;3.33;2.97;;;;;;;;;;5033386;28;20381;-65
2023/06/08 05:35:55;;;;;;;4.82;3.05;;;;;;;;;;5033213;28;20025;-63
2023/06/08 05:38:21;;;;;;;4.63;3.00;;;;;;;;;;5040496;28;20028;-65
2023/06/08 05:40:47;;;;;;;3.88;3.47;;;;;;;;;;5041738;28;20021;-65
2023/06/08 05:43:12;;;;;;;4.15;3.30;;;;;;;;;;5040867;28;20025;-63
2023/06/08 05:45:38;;;;;;;4.95;3.05;;;;;;;;;;5048502;28;20649;-66
2023/06/08 05:48:04;;;;;;;5.35;3.50;;;;;;;;;;5049780;28;20055;-65
2023/06/08 05:50:30;;;;;;;5.57;3.30;;;;;;;;;;5043820;28;20048;-66
2023/06/08 05:52:55;;;;;;;3.60;3.20;;;;;;;;;;5041409;28;20478;-65
2023/06/08 05:55:21;;;;;;;3.85;3.30;;;;;;;;;;5042391;28;20033;-65
2023/06/08 05:57:47;;;;;;;5.82;3.25;;;;;;;;;;5043104;28;20108;-63
2023/06/08 06:00:13;;;;;;;3.78;3.22;;;;;;;;;;5042103;28;20385;-65
2023/06/08 06:02:40;;;;;;;3.55;3.17;;;;;;;;;;5045934;28;20017;-65
2023/06/08 06:05:08;;;;;;;4.05;3.20;;;;;;;;;;5042740;28;20035;-66
2023/06/08 06:07:35;;;;;;;4.10;3.05;;;;;;;;;;5047284;28;20460;-66
2023/06/08 06:10:01;;;;;;;4.38;3.10;;;;;;;;;;5052291;28;20075;-63
2023/06/08 06:12:26;;;;;;;3.55;3.00;;;;;;;;;;5052572;28;20041;-65
2023/06/08 06:14:52;;;;;;;3.45;2.95;;;;;;;;;;5033062;28;20025;-66
2023/06/08 06:17:18;;;;;;;4.45;3.22;;;;;;;;;;5050820;28;20021;-65
2023/06/08 06:19:43;;;;;;;4.38;3.00;;;;;;;;;;5050865;28;20115;-64
2023/06/08 06:22:10;;;;;;;3.80;3.15;;;;;;;;;;5050711;28;20107;-63
2023/06/08 06:24:36;;;;;;;5.90;3.10;;;;;;;;;;5050924;28;20502;-66
2023/06/08 06:27:02;;;;;;;3.45;3.15;;;;;;;;;;5050945;28;20056;-67
2023/06/08 06:29:28;;;;;;;6.00;3.10;;;;;;;;;;5050486;28;20037;-66
2023/06/08 06:31:53;;;;;;;5.00;3.20;;;;;;;;;;5051071;28;20021;-65
2023/06/08 06:34:20;;;;;;;4.45;3.10;;;;;;;;;;5050682;28;20456;-65
2023/06/08 06:36:46;;;;;;;3.42;3.13;;;;;;;;;;5050461;28;20024;-66
2023/06/08 06:39:12;;;;;;;5.25;2.83;;;;;;;;;;5050575;28;20017;-63
2023/06/08 06:41:39;;;;;;;5.22;3.20;;;;;;;;;;5050612;28;20542;-66
2023/06/08 06:44:04;;;;;;;4.38;3.00;;;;;;;;;;5050594;28;20052;-66
2023/06/08 06:46:30;;;;;;;4.00;3.25;;;;;;;;;;5050555;28;20017;-63
2023/06/08 06:48:56;;;;;;;5.57;3.25;;;;;;;;;;5050361;28;20037;-66
2023/06/08 06:51:21;;;;;;;3.63;3.30;;;;;;;;;;5050896;28;20033;-63
2023/06/08 06:53:47;;;;;;;5.13;3.17;;;;;;;;;;5050556;28;20729;-65
2023/06/08 06:56:14;;;;;;;3.15;2.83;;;;;;;;;;5049696;28;20040;-65
2023/06/08 06:58:44;;;;;;;3.38;3.03;;;;;;;;;;5048107;28;20025;-67
2023/06/08 07:01:13;;;;;;;3.15;2.78;;;;;;;;;;5050467;28;20032;-64
2023/06/08 07:03:42;;;;;;;3.72;3.20;;;;;;;;;;5050504;28;20025;-67
2023/06/08 07:06:10;;;;;;;6.32;3.33;;;;;;;;;;5050441;28;20484;-66
2023/06/08 07:08:36;;;;;;;9.48;3.28;;;;;;;;;;5050407;28;20055;-67
2023/06/08 07:11:02;;;;;;;10.75;3.67;;;;;;;;;;5047550;28;20492;-65
2023/06/08 07:13:27;;;;;;;4.13;3.25;;;;;;;;;;5050437;28;20124;-67
2023/06/08 07:15:53;;;;;;;3.83;2.90;;;;;;;;;;5050324;28;20056;-67
2023/06/08 07:18:19;;;;;;;3.50;3.05;;;;;;;;;;5047458;28;20036;-66
2023/06/08 07:20:45;;;;;;;4.20;3.40;;;;;;;;;;5048160;28;20035;-67
2023/06/08 07:23:10;;;;;;;5.13;3.13;;;;;;;;;;5050531;28;20107;-65
2023/06/08 07:25:39;;;;;;;4.47;3.10;;;;;;;;;;5048910;28;20365;-64
2023/06/08 07:28:05;;;;;;;4.25;3.15;;;;;;;;;;5047509;28;20078;-65
2023/06/08 07:30:31;;;;;;;4.32;3.30;;;;;;;;;;5046137;28;20040;-67
2023/06/08 07:33:00;;;;;;;4.82;3.05;;;;;;;;;;5039804;28;20033;-63
2023/06/08 07:35:26;;;;;;;4.50;3.40;;;;;;;;;;5040984;28;20036;-66
2023/06/08 07:37:52;;;;;;;3.53;3.22;;;;;;;;;;5045320;28;20029;-66
2023/06/08 07:40:18;;;;;;;3.80;3.00;;;;;;;;;;5031306;28;20041;-66
2023/06/08 07:42:45;;;;;;;3.92;3.25;;;;;;;;;;5045808;28;20029;-67
2023/06/08 07:45:11;;;;;;;3.28;2.97;;;;;;;;;;5030765;28;20029;-66
2023/06/08 07:47:38;;;;;;;5.53;2.83;;;;;;;;;;5031023;28;20021;-66
2023/06/08 07:50:08;;;;;;;7.25;2.92;;;;;;;;;;5033094;28;20105;-66
2023/06/08 07:52:34;;;;;;;6.22;3.28;;;;;;;;;;5033927;28;20076;-66
2023/06/08 07:54:59;;;;;;;6.88;3.00;;;;;;;;;;5033956;28;20084;-65
2023/06/08 07:57:25;;;;;;;6.57;2.90;;;;;;;;;;5033674;28;20397;-67
2023/06/08 07:59:51;;;;;;;5.78;3.20;;;;;;;;;;5047393;28;20037;-64
2023/06/08 08:02:16;;;;;;;6.25;3.33;;;;;;;;;;5053588;28;20710;-67
2023/06/08 08:04:42;;;;;;;4.05;2.78;;;;;;;;;;5053771;28;20032;-65
2023/06/08 08:07:08;;;;;;;3.95;3.00;;;;;;;;;;5049470;28;20498;-65
2023/06/08 08:09:33;;;;;;;4.25;3.15;;;;;;;;;;5052462;28;20056;-63
2023/06/08 08:12:01;;;;;;;3.20;2.90;;;;;;;;;;5068788;28;20053;-65
2023/06/08 08:14:27;;;;;;;3.22;2.92;;;;;;;;;;5053321;28;20534;-64
2023/06/08 08:16:52;;;;;;;4.68;3.00;;;;;;;;;;5053136;28;20024;-66
2023/06/08 08:19:18;;;;;;;3.08;2.78;;;;;;;;;;5053330;28;20033;-65
2023/06/08 08:21:43;;;;;;;4.25;3.25;;;;;;;;;;5052929;28;20438;-64
2023/06/08 08:24:09;;;;;;;3.50;2.70;;;;;;;;;;5053390;28;20032;-65
2023/06/08 08:26:40;;;;;;;6.18;3.13;;;;;;;;;;5053029;28;20648;-66
2023/06/08 08:29:06;;;;;;;3.45;2.80;;;;;;;;;;5052767;28;20481;-65
2023/06/08 08:31:32;;;;;;;4.25;2.90;;;;;;;;;;5050079;28;20033;-64
2023/06/08 08:33:58;;;;;;;3.67;2.83;;;;;;;;;;5052918;28;20388;-66
2023/06/08 08:36:23;;;;;;;3.58;3.13;;;;;;;;;;5052827;28;20472;-64
2023/06/08 08:38:49;;;;;;;3.67;2.83;;;;;;;;;;5053039;28;20472;-66
2023/06/08 08:41:19;;;;;;;3.13;2.83;;;;;;;;;;5052820;28;20412;-64
2023/06/08 08:44:07;;;;;;;;;;;;;;;;;;5051716;28;20020;-66
2023/06/08 08:46:39;;;;;;;4.55;2.65;;;;;;;;;;5052934;28;19939;-65
2023/06/08 08:49:17;;;;;;;5.38;2.60;;;;;;;;;;5051226;28;20084;-67
2023/06/08 08:51:49;;;;;;;4.68;3.00;;;;;;;;;;5052600;28;20028;-65
2023/06/08 08:54:16;;;;;;;2.65;2.45;;;;;;;;;;5052661;28;20103;-64
2023/06/08 08:56:42;;;;;;;2.88;2.63;;;;;;;;;;5052766;28;20024;-66
2023/06/08 08:59:08;;;;;;;4.60;2.90;;;;;;;;;;5052261;28;20025;-65
2023/06/08 09:01:34;;;;;;;4.32;2.50;;;;;;;;;;5052527;28;20028;-65
2023/06/08 09:04:00;;;;;;;4.60;2.88;;;;;;;;;;5052575;28;20033;-65
2023/06/08 09:06:28;;;;;;;3.55;3.08;;;;;;;;;;5052233;28;20078;-65
2023/06/08 09:08:54;;;;;;;4.38;2.60;;;;;;;;;;5052302;28;20508;-66
2023/06/08 09:11:19;;;;;;;3.33;2.70;;;;;;;;;;5052358;28;20037;-65
2023/06/08 09:13:45;;;;;;;3.55;2.70;;;;;;;;;;5049995;28;20665;-65
2023/06/08 09:16:11;;;;;;;4.03;2.88;;;;;;;;;;5052154;28;20033;-65
2023/06/08 09:18:38;;;;;;;6.45;2.75;;;;;;;;;;5052314;28;20032;-65
2023/06/08 09:21:23;;;;;;;2.92;2.65;;;;;;;;;;5052025;28;20017;-65
2023/06/08 09:24:16;;;;;;;2.95;2.67;;;;;;;;;;5052162;28;20025;-65
2023/06/08 09:26:56;;;;;;;3.50;2.80;;;;;;;;;;5048853;28;20017;-65
2023/06/08 09:29:40;;;;;;;4.22;2.78;;;;;;;;;;5051892;28;20047;-65
2023/06/08 09:32:12;;;;;;;2.78;2.53;;;;;;;;;;5051695;28;20021;-66
2023/06/08 09:34:52;;;;;;;3.33;2.92;;;;;;;;;;5050498;28;20033;-66
2023/06/08 09:37:18;;;;;;;3.58;3.00;;;;;;;;;;5051863;28;20060;-65
2023/06/08 09:39:45;;;;;;;3.78;2.90;;;;;;;;;;5051863;28;20127;-65
2023/06/08 09:42:11;;;;;;;3.13;2.80;;;;;;;;;;5051739;28;20025;-66
2023/06/08 09:44:38;;;;;;;5.50;3.00;;;;;;;;;;5051432;28;20110;-66
2023/06/08 09:47:21;;;;;;;3.60;2.88;;;;;;;;;;5051376;28;20059;-65
2023/06/08 09:49:49;;;;;;;6.45;3.20;;;;;;;;;;5051366;28;20556;-65
2023/06/08 09:52:18;;;;;;;3.92;2.42;;;;;;;;;;5051389;28;20024;-66
2023/06/08 09:54:45;;;;;;;2.97;2.77;;;;;;;;;;5051346;28;20021;-65
2023/06/08 09:57:13;;;;;;;3.63;2.80;;;;;;;;;;5051234;28;20288;-66
2023/06/08 09:59:44;;;;;;;3.25;2.97;;;;;;;;;;5051157;28;20435;-65
2023/06/08 10:02:21;;;;;;;4.15;2.83;;;;;;;;;;5051138;28;20032;-66
2023/06/08 10:04:53;;;;;;;3.38;2.90;;;;;;;;;;5051197;28;20025;-65
2023/06/08 10:07:29;;;;;;;3.65;2.72;;;;;;;;;;5051132;28;20039;-65
2023/06/08 10:10:10;;;;;;;4.18;3.00;;;;;;;;;;5050833;28;20083;-65
2023/06/08 10:12:36;;;;;;;7.75;2.90;;;;;;;;;;5050652;28;20373;-66
2023/06/08 10:15:02;;;;;;;5.70;2.75;;;;;;;;;;5049476;28;20473;-65
2023/06/08 10:17:29;;;;;;;3.17;2.88;;;;;;;;;;5049131;28;20067;-65
2023/06/08 10:19:56;;;;;;;6.40;3.30;;;;;;;;;;5050152;28;20105;-65
2023/06/08 10:22:23;;;;;;;3.25;2.80;;;;;;;;;;5048678;28;20033;-65
2023/06/08 10:24:49;;;;;;;3.72;2.60;;;;;;;;;;5049884;28;20032;-64
2023/06/08 10:27:24;;;;;;;3.25;2.80;;;;;;;;;;5049909;28;20501;-65
2023/06/08 10:29:55;;;;;;;12.45;3.00;;;;;;;;;;5049887;28;20040;-64
2023/06/08 10:32:29;;;;;;;3.10;2.60;;;;;;;;;;5049687;28;20025;-64
2023/06/08 10:35:06;;;;;;;4.07;2.88;;;;;;;;;;5050014;28;20477;-64
2023/06/08 10:37:32;;;;;;;2.83;2.60;;;;;;;;;;5049509;28;20079;-64
2023/06/08 10:40:00;;;;;;;3.95;2.70;;;;;;;;;;5050505;28;20212;-64
2023/06/08 10:42:26;;;;;;;4.70;2.70;;;;;;;;;;5050835;28;20415;-65
2023/06/08 10:44:54;;;;;;;3.30;3.00;;;;;;;;;;5050930;28;20036;-65
2023/06/08 10:47:19;;;;;;;2.97;2.55;;;;;;;;;;5050496;28;20033;-64
2023/06/08 10:49:50;;;;;;;3.92;3.15;;;;;;;;;;5050578;28;20040;-66
2023/06/08 10:52:21;;;;;;;3.00;2.70;;;;;;;;;;5048238;28;20029;-64
2023/06/08 10:54:52;;;;;;;4.43;2.85;;;;;;;;;;5050549;28;20033;-64
2023/06/08 10:57:52;;;;;;;3.13;2.55;;;;;;;;;;5050488;28;20550;-65
2023/06/08 11:00:28;;;;;;;;;;;;;;;;;;5039796;28;20041;-64
2023/06/08 11:02:59;;;;;;;2.70;2.50;;;;;;;;;;5050554;28;19913;-63
2023/06/08 11:05:29;;;;;;;2.85;2.53;;;;;;;;;;5048038;28;20366;-66
2023/06/08 11:07:56;;;;;;;;;;;;;;;;;;5051245;28;20500;-64
2023/06/08 11:10:22;;;;;;;5.55;5.03;;;;;;;;;;5050026;28;19920;-63
2023/06/08 11:12:48;;;;;;;8.85;4.40;;;;;;;;;;5050193;28;20033;-66
2023/06/08 11:15:14;;;;;;;6.13;5.28;;;;;;;;;;5050305;28;20544;-62
2023/06/08 11:17:43;;;;;;;6.30;5.30;;;;;;;;;;5050398;28;20028;-66
2023/06/08 11:20:10;;;;;;;6.40;5.68;;;;;;;;;;5050176;28;20037;-62
2023/06/08 11:22:39;;;;;;;9.07;6.00;;;;;;;;;;5050492;28;20036;-66
2023/06/08 11:25:07;;;;;;;6.78;4.90;;;;;;;;;;5053708;28;20028;-65
2023/06/08 11:27:33;;;;;;;6.63;5.82;;;;;;;;;;5054374;28;20033;-66
2023/06/08 11:29:58;;;;;;;18.25;5.97;;;;;;;;;;5054286;28;20041;-62
2023/06/08 11:32:26;;;;;;;7.50;6.13;;;;;;;;;;5054060;28;20051;-62
2023/06/08 11:34:53;;;;;;;7.43;5.65;;;;;;;;;;5051698;28;20041;-61
2023/06/08 11:37:18;;;;;;;8.18;6.70;;;;;;;;;;5053931;28;20029;-67
2023/06/08 11:39:45;;;;;;;9.40;6.97;;;;;;;;;;5054129;28;20033;-67
2023/06/08 11:42:11;;;;;;;7.07;6.38;;;;;;;;;;5053652;28;20035;-67
2023/06/08 11:44:36;;;;;;;9.95;6.40;;;;;;;;;;5054080;28;20033;-67
2023/06/08 11:47:03;;;;;;;7.38;5.80;;;;;;;;;;5054077;28;20029;-68
2023/06/08 11:49:51;;;;;;;8.68;5.70;;;;;;;;;;5053845;28;20072;-68
2023/06/08 11:52:17;;;;;;;8.93;6.60;;;;;;;;;;5053733;28;20484;-63
2023/06/08 11:54:42;;;;;;;9.18;5.90;;;;;;;;;;5053541;28;20025;-65
2023/06/08 11:57:08;;;;;;;6.85;5.88;;;;;;;;;;5053614;28;20032;-67
2023/06/08 11:59:36;;;;;;;9.55;5.40;;;;;;;;;;5053358;28;20029;-68
2023/06/08 12:02:10;;;;;;;6.88;5.20;;;;;;;;;;5052298;28;20112;-66
2023/06/08 12:04:36;;;;;;;5.25;4.70;;;;;;;;;;5053321;28;20115;-65
2023/06/08 12:07:12;;;;;;;7.45;5.05;;;;;;;;;;5053337;28;20477;-65
2023/06/08 12:09:38;;;;;;;5.15;4.22;;;;;;;;;;5053131;28;20044;-63
2023/06/08 12:12:11;;;;;;;8.07;4.70;;;;;;;;;;5053286;28;20035;-65
2023/06/08 12:14:42;;;;;;;6.18;5.10;;;;;;;;;;5053453;28;20056;-66
2023/06/08 12:17:08;;;;;;;5.03;4.53;;;;;;;;;;5053190;28;20068;-63
2023/06/08 12:19:34;;;;;;;5.63;4.80;;;;;;;;;;5053098;28;20056;-67
2023/06/08 12:22:00;;;;;;;11.07;5.30;;;;;;;;;;5053119;28;20032;-63
2023/06/08 12:24:26;;;;;;;16.40;5.38;;;;;;;;;;5053052;28;20025;-62
2023/06/08 12:26:52;;;;;;;18.13;5.68;;;;;;;;;;5051765;28;20079;-63
2023/06/08 12:29:18;;;;;;;13.65;5.20;;;;;;;;;;5051680;28;20061;-64
2023/06/08 12:31:43;;;;;;;34.17;8.10;;;;;;;;;;5053072;28;20025;-68
2023/06/08 12:34:09;;;;;;;34.50;7.20;;;;;;;;;;5052617;28;20377;-63
2023/06/08 12:36:35;;;;;;;31.45;7.25;;;;;;;;;;5052722;28;20032;-65
2023/06/08 12:39:00;;;;;;;12.85;5.38;;;;;;;;;;5051314;28;20100;-67
2023/06/08 12:41:26;;;;;;;13.32;5.65;;;;;;;;;;5052769;28;20037;-67
2023/06/08 12:43:52;;;;;;;16.13;5.85;;;;;;;;;;5052688;28;20025;-67
2023/06/08 12:46:21;;;;;;;15.18;6.40;;;;;;;;;;5052674;28;20029;-68
2023/06/08 12:48:48;;;;;;;16.20;5.82;;;;;;;;;;5052850;28;20513;-68
2023/06/08 12:51:15;;;;;;;10.63;5.18;;;;;;;;;;5052581;28;20033;-68
2023/06/08 12:53:41;;;;;;;11.95;5.95;;;;;;;;;;5052887;28;20088;-67
2023/06/08 12:56:06;;;;;;;12.57;5.50;;;;;;;;;;5052525;28;20056;-70
2023/06/08 12:58:33;;;;;;;17.60;5.90;;;;;;;;;;5052464;28;20643;-72
2023/06/08 13:00:58;;;;;;;20.70;6.35;;;;;;;;;;5052486;28;20056;-71
2023/06/08 13:03:24;;;;;;;60.17;8.23;;;;;;;;;;5052445;28;20055;-64
2023/06/08 13:05:51;;;;;;;27.85;5.28;;;;;;;;;;5052196;28;20029;-66
2023/06/08 13:08:16;;;;;;;19.55;6.07;;;;;;;;;;5052129;28;20120;-65
2023/06/08 13:10:44;;;;;;;16.83;6.25;;;;;;;;;;5052044;28;20116;-63
2023/06/08 13:13:09;;;;;;;23.45;7.15;;;;;;;;;;5052085;28;20044;-66
2023/06/08 13:15:36;;;;;;;11.70;5.88;;;;;;;;;;5050644;28;20059;-64
2023/06/08 13:18:03;;;;;;;13.38;4.35;;;;;;;;;;5052124;28;20029;-66
2023/06/08 13:20:29;;;;;;;17.90;4.60;;;;;;;;;;5051975;28;20045;-63
2023/06/08 13:22:54;;;;;;;16.45;4.55;;;;;;;;;;5052012;28;20372;-67
2023/06/08 13:25:20;;;;;;;8.95;4.15;;;;;;;;;;5051896;28;20167;-66
2023/06/08 13:27:46;;;;;;;6.85;4.30;;;;;;;;;;5051882;28;20461;-66
2023/06/08 13:30:12;;;;;;;6.82;3.95;;;;;;;;;;5052009;28;20054;-67
2023/06/08 13:32:38;;;;;;;8.00;4.03;;;;;;;;;;5052088;28;20056;-66
2023/06/08 13:35:04;;;;;;;8.32;4.45;;;;;;;;;;5051782;28;20036;-63
2023/06/08 13:37:30;;;;;;;5.72;3.75;;;;;;;;;;5051689;28;20029;-68
2023/06/08 13:39:55;;;;;;;8.82;4.22;;;;;;;;;;5051705;28;20047;-65
2023/06/08 13:42:21;;;;;;;5.10;3.88;;;;;;;;;;5051780;28;20021;-64
2023/06/08 13:44:47;;;;;;;7.40;3.78;;;;;;;;;;5051553;28;20021;-63
2023/06/08 13:47:13;;;;;;;4.95;3.92;;;;;;;;;;5050824;28;20020;-66
2023/06/08 13:49:41;;;;;;;6.50;3.85;;;;;;;;;;5051412;28;20040;-64
2023/06/08 13:52:08;;;;;;;4.20;3.65;;;;;;;;;;5051344;28;20507;-63
2023/06/08 13:54:33;;;;;;;4.32;3.92;;;;;;;;;;5049774;28;20124;-62
2023/06/08 13:56:59;;;;;;;4.80;4.40;;;;;;;;;;5051285;28;20109;-63
2023/06/08 13:59:25;;;;;;;5.32;4.20;;;;;;;;;;5051512;28;20136;-63
2023/06/08 14:01:53;;;;;;;4.68;4.28;;;;;;;;;;5051596;28;20495;-67
2023/06/08 14:04:18;;;;;;;4.35;3.95;;;;;;;;;;5051150;28;20031;-67
2023/06/08 14:06:45;;;;;;;5.45;4.25;;;;;;;;;;5051273;28;20032;-66
2023/06/08 14:09:11;;;;;;;5.97;4.55;;;;;;;;;;5050828;28;20033;-67
2023/06/08 14:11:37;;;;;;;4.40;4.00;;;;;;;;;;5051198;28;20025;-64
2023/06/08 14:14:03;;;;;;;7.22;3.83;;;;;;;;;;5051334;28;20021;-64
2023/06/08 14:16:28;;;;;;;4.43;3.90;;;;;;;;;;5051151;28;20064;-63
2023/06/08 14:18:55;;;;;;;4.28;3.90;;;;;;;;;;5050916;28;20041;-64
2023/06/08 14:21:20;;;;;;;4.43;4.03;;;;;;;;;;5051331;28;20048;-67
2023/06/08 14:23:46;;;;;;;4.47;4.05;;;;;;;;;;5051005;28;20025;-64
2023/06/08 14:26:12;;;;;;;6.10;3.60;;;;;;;;;;5051165;28;20032;-67
2023/06/08 14:28:39;;;;;;;14.30;4.63;;;;;;;;;;5051111;28;20432;-67
2023/06/08 14:31:05;;;;;;;9.70;4.45;;;;;;;;;;5049187;28;20071;-64
2023/06/08 14:33:30;;;;;;;7.07;4.13;;;;;;;;;;5041322;28;20049;-65
2023/06/08 14:35:56;;;;;;;6.72;4.55;;;;;;;;;;5044118;28;20032;-62
2023/06/08 14:38:21;;;;;;;4.75;4.00;;;;;;;;;;5040030;28;20043;-63
2023/06/08 14:40:47;;;;;;;4.97;4.00;;;;;;;;;;5051066;28;20025;-67
2023/06/08 14:43:13;;;;;;;4.13;3.83;;;;;;;;;;5050948;28;20487;-68
2023/06/08 14:45:38;;;;;;;4.47;4.05;;;;;;;;;;5050711;28;20024;-63